Time;durP1;ratioP1;P1;durP2;ratioP2;P2;SDS_P1;SDS_P2;PMS_P1;PMS_P2;Temp;Humidity;BMP_temperature;BMP_pressure;BME280_temperature;BME280_humidity;BME280_pressure;Samples;Min_cycle;Max_cycle;Signal;HPM_P1;HPM_P2
2021/08/06 00:00:16;;;;;;;9.57;5.28;;;;;;;;;;2130520;27;20124;-46
2021/08/06 00:01:19;;;;;;;7.10;4.47;;;;;;;;;;2129795;27;20047;-45
2021/08/06 00:02:21;;;;;;;9.70;5.22;;;;;;;;;;2131239;27;20069;-47
2021/08/06 00:03:22;;;;;;;8.73;5.25;;;;;;;;;;2129096;27;20053;-46
2021/08/06 00:04:23;;;;;;;9.75;4.82;;;;;;;;;;2130011;27;20068;-46
2021/08/06 00:05:25;;;;;;;8.70;5.63;;;;;;;;;;2131014;27;20445;-46
2021/08/06 00:06:27;;;;;;;7.68;5.20;;;;;;;;;;2130017;27;20278;-45
2021/08/06 00:07:28;;;;;;;13.98;5.60;;;;;;;;;;2130612;27;20505;-46
2021/08/06 00:08:29;;;;;;;16.40;6.03;;;;;;;;;;2131292;27;20102;-48
2021/08/06 00:09:31;;;;;;;10.88;5.43;;;;;;;;;;2129669;27;20488;-45
2021/08/06 00:10:32;;;;;;;7.55;5.15;;;;;;;;;;2130616;27;20505;-45
2021/08/06 00:11:34;;;;;;;6.73;4.43;;;;;;;;;;2131012;27;20058;-49
2021/08/06 00:12:35;;;;;;;8.70;4.47;;;;;;;;;;2129055;27;20501;-46
2021/08/06 00:13:36;;;;;;;7.73;4.53;;;;;;;;;;2131102;27;20042;-46
2021/08/06 00:14:37;;;;;;;7.90;4.35;;;;;;;;;;2131511;27;20302;-46
2021/08/06 00:15:39;;;;;;;7.07;4.45;;;;;;;;;;2128704;27;20410;-48
2021/08/06 00:16:40;;;;;;;8.63;4.30;;;;;;;;;;2131184;27;20074;-45
2021/08/06 00:17:41;;;;;;;9.00;4.53;;;;;;;;;;2131348;27;20046;-46
2021/08/06 00:18:42;;;;;;;10.93;5.07;;;;;;;;;;2129172;27;20278;-46
2021/08/06 00:19:43;;;;;;;12.77;4.93;;;;;;;;;;2131420;27;20049;-45
2021/08/06 00:20:44;;;;;;;7.53;4.28;;;;;;;;;;2131212;27;20521;-46
2021/08/06 00:21:45;;;;;;;8.97;4.63;;;;;;;;;;2129075;27;20079;-45
2021/08/06 00:22:46;;;;;;;7.97;4.40;;;;;;;;;;2130726;27;20123;-44
2021/08/06 00:23:48;;;;;;;6.57;4.33;;;;;;;;;;2131861;27;20353;-47
2021/08/06 00:24:49;;;;;;;8.45;4.90;;;;;;;;;;2129066;27;20875;-49
2021/08/06 00:25:50;;;;;;;11.45;5.00;;;;;;;;;;2131822;27;20129;-45
2021/08/06 00:26:52;;;;;;;6.55;4.50;;;;;;;;;;2130571;27;20130;-46
2021/08/06 00:27:53;;;;;;;6.05;4.40;;;;;;;;;;2129659;27;20104;-49
2021/08/06 00:28:54;;;;;;;10.03;4.23;;;;;;;;;;2131556;27;20453;-47
2021/08/06 00:29:55;;;;;;;5.88;4.05;;;;;;;;;;2130860;27;20126;-46
2021/08/06 00:30:56;;;;;;;6.80;4.40;;;;;;;;;;2129779;27;20621;-44
2021/08/06 00:31:57;;;;;;;6.40;3.97;;;;;;;;;;2131368;27;20098;-46
2021/08/06 00:32:58;;;;;;;10.50;4.15;;;;;;;;;;2129651;27;20130;-45
2021/08/06 00:33:59;;;;;;;7.07;4.35;;;;;;;;;;2130363;27;20149;-46
2021/08/06 00:35:00;;;;;;;10.57;4.50;;;;;;;;;;2131461;27;20045;-46
2021/08/06 00:36:02;;;;;;;6.72;4.55;;;;;;;;;;2129358;27;20215;-45
2021/08/06 00:37:03;;;;;;;10.05;4.70;;;;;;;;;;2130334;27;20078;-45
2021/08/06 00:38:04;;;;;;;7.20;4.00;;;;;;;;;;2131304;27;20125;-46
2021/08/06 00:39:05;;;;;;;7.93;3.92;;;;;;;;;;2129302;27;20098;-45
2021/08/06 00:40:10;;;;;;;7.10;3.80;;;;;;;;;;2130430;27;20057;-45
2021/08/06 00:41:11;;;;;;;8.02;4.03;;;;;;;;;;2131342;27;20137;-45
2021/08/06 00:42:13;;;;;;;7.65;4.10;;;;;;;;;;2129191;27;20129;-47
2021/08/06 00:43:14;;;;;;;8.55;3.70;;;;;;;;;;2131036;27;20051;-46
2021/08/06 00:44:15;;;;;;;7.35;3.80;;;;;;;;;;2131323;27;20088;-47
2021/08/06 00:45:16;;;;;;;6.77;3.07;;;;;;;;;;2129134;27;20451;-46
2021/08/06 00:46:18;;;;;;;6.93;3.38;;;;;;;;;;2131073;27;20483;-45
2021/08/06 00:47:19;;;;;;;8.35;3.65;;;;;;;;;;2131337;27;20103;-47
2021/08/06 00:48:20;;;;;;;6.13;3.63;;;;;;;;;;2128995;27;20677;-45
2021/08/06 00:49:21;;;;;;;6.72;3.40;;;;;;;;;;2131327;27;20142;-47
2021/08/06 00:50:24;;;;;;;9.32;3.60;;;;;;;;;;2133702;27;20125;-46
2021/08/06 00:51:27;;;;;;;9.38;3.83;;;;;;;;;;2130849;27;20065;-46
2021/08/06 00:52:30;;;;;;;5.43;3.10;;;;;;;;;;2132879;27;20043;-49
2021/08/06 00:53:32;;;;;;;4.35;3.17;;;;;;;;;;2134147;27;20035;-46
2021/08/06 00:54:36;;;;;;;8.35;3.50;;;;;;;;;;2132043;27;20046;-48
2021/08/06 00:55:40;;;;;;;6.57;3.28;;;;;;;;;;2134845;27;20038;-47
2021/08/06 00:56:47;;;;;;;6.13;3.25;;;;;;;;;;2134300;27;20448;-47
2021/08/06 00:57:50;;;;;;;5.50;3.22;;;;;;;;;;2129733;27;20482;-46
2021/08/06 00:58:51;;;;;;;5.82;3.17;;;;;;;;;;2131153;27;20038;-47
2021/08/06 00:59:52;;;;;;;5.05;2.92;;;;;;;;;;2129797;27;20042;-49
2021/08/06 01:00:53;;;;;;;6.80;3.27;;;;;;;;;;2131097;27;20403;-46
2021/08/06 01:02:02;;;;;;;9.88;3.30;;;;;;;;;;2131262;27;20057;-45
2021/08/06 01:03:05;;;;;;;4.25;2.80;;;;;;;;;;2128556;27;20456;-46
2021/08/06 01:04:07;;;;;;;7.10;3.08;;;;;;;;;;2131099;27;20054;-45
2021/08/06 01:05:08;;;;;;;;;;;;;;;;;;2131196;27;20095;-46
2021/08/06 01:06:11;;;;;;;7.82;2.50;;;;;;;;;;2129259;27;19970;-46
2021/08/06 01:07:17;;;;;;;3.65;2.72;;;;;;;;;;2130315;27;20055;-49
2021/08/06 01:08:21;;;;;;;4.85;2.55;;;;;;;;;;2130087;27;20098;-47
2021/08/06 01:09:28;;;;;;;7.40;3.00;;;;;;;;;;2130454;27;20053;-48
2021/08/06 01:10:35;;;;;;;4.63;2.45;;;;;;;;;;2129116;27;20460;-47
2021/08/06 01:11:39;;;;;;;8.93;3.22;;;;;;;;;;2129068;27;20484;-46
2021/08/06 01:12:43;;;;;;;6.15;2.95;;;;;;;;;;2130765;27;20066;-47
2021/08/06 01:13:48;;;;;;;8.20;3.10;;;;;;;;;;2128618;27;20448;-45
2021/08/06 01:14:49;;;;;;;6.65;2.75;;;;;;;;;;2128232;27;20544;-47
2021/08/06 01:15:53;;;;;;;6.05;2.38;;;;;;;;;;2129436;27;20126;-48
2021/08/06 01:16:56;;;;;;;8.60;2.60;;;;;;;;;;2131068;27;20053;-46
2021/08/06 01:17:59;;;;;;;5.47;2.45;;;;;;;;;;2129852;27;20539;-46
2021/08/06 01:19:06;;;;;;;4.43;2.78;;;;;;;;;;2131066;27;20042;-46
2021/08/06 01:20:10;;;;;;;4.18;2.58;;;;;;;;;;2128141;27;20605;-45
2021/08/06 01:21:13;;;;;;;6.50;2.80;;;;;;;;;;2129910;27;20522;-46
2021/08/06 01:22:15;;;;;;;7.35;2.92;;;;;;;;;;2131032;27;20125;-48
2021/08/06 01:23:19;;;;;;;5.35;2.78;;;;;;;;;;2127825;27;20144;-46
2021/08/06 01:24:23;;;;;;;8.00;2.95;;;;;;;;;;2130461;27;20474;-47
2021/08/06 01:25:39;;;;;;;6.13;3.05;;;;;;;;;;2128389;27;20054;-48
2021/08/06 01:26:41;;;;;;;7.57;2.80;;;;;;;;;;2127186;27;20042;-46
2021/08/06 01:27:44;;;;;;;6.78;3.05;;;;;;;;;;2130856;27;20084;-50
2021/08/06 01:28:47;;;;;;;3.75;2.53;;;;;;;;;;2128539;27;20043;-44
2021/08/06 01:29:48;;;;;;;4.95;2.83;;;;;;;;;;2128918;27;20121;-45
2021/08/06 01:30:50;;;;;;;6.60;2.90;;;;;;;;;;2130951;27;20041;-45
2021/08/06 01:31:51;;;;;;;4.97;2.90;;;;;;;;;;2130462;27;20490;-47
2021/08/06 01:32:53;;;;;;;4.55;2.80;;;;;;;;;;2129258;27;20054;-46
2021/08/06 01:33:54;;;;;;;5.35;2.80;;;;;;;;;;2131113;27;20043;-45
2021/08/06 01:34:55;;;;;;;4.05;2.72;;;;;;;;;;2130555;27;20082;-47
2021/08/06 01:35:57;;;;;;;5.78;2.83;;;;;;;;;;2129470;27;20514;-47
2021/08/06 01:36:58;;;;;;;6.68;2.70;;;;;;;;;;2131074;27;20049;-50
2021/08/06 01:37:59;;;;;;;6.00;2.57;;;;;;;;;;2129793;27;20081;-46
2021/08/06 01:39:00;;;;;;;4.05;2.40;;;;;;;;;;2129976;27;20594;-46
2021/08/06 01:40:03;;;;;;;3.95;2.63;;;;;;;;;;2130978;27;20134;-45
2021/08/06 01:41:10;;;;;;;5.55;2.55;;;;;;;;;;2126404;27;20055;-46
2021/08/06 01:42:14;;;;;;;5.07;2.72;;;;;;;;;;2130530;27;20050;-46
2021/08/06 01:43:19;;;;;;;4.85;2.60;;;;;;;;;;2130917;27;20463;-45
2021/08/06 01:44:23;;;;;;;4.68;2.65;;;;;;;;;;2128635;27;20035;-46
2021/08/06 01:45:26;;;;;;;6.88;3.00;;;;;;;;;;2130909;27;20068;-46
2021/08/06 01:46:29;;;;;;;3.72;2.30;;;;;;;;;;2130889;27;20161;-47
2021/08/06 01:47:34;;;;;;;11.50;3.60;;;;;;;;;;2128562;27;20399;-47
2021/08/06 01:48:38;;;;;;;3.72;2.60;;;;;;;;;;2130887;27;20126;-49
2021/08/06 01:49:41;;;;;;;3.97;2.42;;;;;;;;;;2130541;27;20038;-48
2021/08/06 01:50:44;;;;;;;7.03;2.58;;;;;;;;;;2128889;27;20142;-46
2021/08/06 01:51:49;;;;;;;5.22;2.97;;;;;;;;;;2128423;27;20133;-47
2021/08/06 01:52:51;;;;;;;5.60;2.50;;;;;;;;;;2125861;27;20071;-47
2021/08/06 01:53:52;;;;;;;;;;;;;;;;;;2130494;27;20134;-47
2021/08/06 01:54:53;;;;;;;6.22;2.80;;;;;;;;;;2130777;27;19927;-46
2021/08/06 01:55:56;;;;;;;6.85;2.75;;;;;;;;;;2129920;27;20547;-46
2021/08/06 01:56:57;;;;;;;6.53;2.58;;;;;;;;;;2130406;27;20058;-47
2021/08/06 01:58:00;;;;;;;3.65;2.40;;;;;;;;;;2130687;27;20147;-47
2021/08/06 01:59:01;;;;;;;4.18;2.67;;;;;;;;;;2129289;27;20047;-47
2021/08/06 02:00:03;;;;;;;3.88;2.53;;;;;;;;;;2130461;27;20538;-46
2021/08/06 02:01:04;;;;;;;8.27;2.42;;;;;;;;;;2131104;27;20125;-45
2021/08/06 02:02:05;;;;;;;7.80;3.10;;;;;;;;;;2128725;27;20047;-48
2021/08/06 02:03:07;;;;;;;8.73;2.90;;;;;;;;;;2130768;27;20042;-47
2021/08/06 02:04:08;;;;;;;;;;;;;;;;;;2131269;27;20047;-48
2021/08/06 02:05:09;;;;;;;5.63;2.58;;;;;;;;;;2128586;27;19918;-46
2021/08/06 02:06:10;;;;;;;4.90;2.83;;;;;;;;;;2130632;27;20558;-45
2021/08/06 02:07:14;;;;;;;5.43;2.60;;;;;;;;;;2130787;27;20081;-48
2021/08/06 02:08:15;;;;;;;4.03;2.10;;;;;;;;;;2128500;27;20451;-48
2021/08/06 02:09:16;;;;;;;4.70;2.57;;;;;;;;;;2130798;27;20138;-46
2021/08/06 02:10:18;;;;;;;4.20;2.40;;;;;;;;;;2130996;27;20059;-46
2021/08/06 02:11:19;;;;;;;;;;;;;;;;;;2127450;27;20038;-47
2021/08/06 02:12:20;;;;;;;6.68;3.00;;;;;;;;;;2130878;27;19971;-45
2021/08/06 02:13:22;;;;;;;5.93;3.27;;;;;;;;;;2130522;27;20046;-45
2021/08/06 02:14:23;;;;;;;5.75;2.80;;;;;;;;;;2128887;27;20053;-46
2021/08/06 02:15:24;;;;;;;5.35;2.88;;;;;;;;;;2130963;27;20123;-48
2021/08/06 02:16:25;;;;;;;5.82;2.40;;;;;;;;;;2130557;27;20053;-45
2021/08/06 02:17:27;;;;;;;4.70;3.00;;;;;;;;;;2128887;27;20034;-45
2021/08/06 02:18:30;;;;;;;5.30;2.83;;;;;;;;;;2132068;27;20110;-46
2021/08/06 02:19:32;;;;;;;4.35;2.60;;;;;;;;;;2131128;27;20511;-46
2021/08/06 02:20:33;;;;;;;5.60;2.80;;;;;;;;;;2131410;27;20524;-45
2021/08/06 02:21:36;;;;;;;7.25;2.80;;;;;;;;;;2132422;27;20589;-46
2021/08/06 02:22:39;;;;;;;5.07;2.17;;;;;;;;;;2130310;27;20456;-48
2021/08/06 02:23:44;;;;;;;4.30;2.25;;;;;;;;;;2131920;27;20071;-46
2021/08/06 02:24:45;;;;;;;3.92;2.40;;;;;;;;;;2132334;27;20538;-47
2021/08/06 02:25:46;;;;;;;3.60;2.50;;;;;;;;;;2130039;27;20104;-46
2021/08/06 02:26:48;;;;;;;6.03;2.67;;;;;;;;;;2131065;27;20099;-47
2021/08/06 02:27:50;;;;;;;4.18;2.20;;;;;;;;;;2132352;27;20038;-48
2021/08/06 02:28:51;;;;;;;;;;;;;;;;;;2130470;27;20043;-46
2021/08/06 02:29:53;;;;;;;4.07;2.60;;;;;;;;;;2131920;27;20412;-45
2021/08/06 02:30:55;;;;;;;5.03;2.53;;;;;;;;;;2132218;27;20505;-46
2021/08/06 02:31:57;;;;;;;5.90;3.17;;;;;;;;;;2129974;27;20483;-46
2021/08/06 02:32:58;;;;;;;4.47;2.65;;;;;;;;;;2132030;27;20043;-46
2021/08/06 02:34:00;;;;;;;4.28;2.35;;;;;;;;;;2132216;27;20479;-46
2021/08/06 02:35:01;;;;;;;5.45;2.65;;;;;;;;;;2130102;27;20149;-45
2021/08/06 02:36:02;;;;;;;4.93;2.60;;;;;;;;;;2132377;27;20130;-46
2021/08/06 02:37:04;;;;;;;5.45;2.60;;;;;;;;;;2132375;27;20051;-46
2021/08/06 02:38:05;;;;;;;5.53;2.60;;;;;;;;;;2128798;27;20415;-46
2021/08/06 02:39:10;;;;;;;4.47;2.72;;;;;;;;;;2132338;27;20103;-46
2021/08/06 02:40:12;;;;;;;5.07;2.67;;;;;;;;;;2131844;27;20039;-47
2021/08/06 02:41:13;;;;;;;5.32;2.58;;;;;;;;;;2130675;27;20137;-48
2021/08/06 02:42:14;;;;;;;5.55;2.85;;;;;;;;;;2132191;27;20133;-46
2021/08/06 02:43:15;;;;;;;3.27;2.40;;;;;;;;;;2131137;27;20042;-46
2021/08/06 02:44:16;;;;;;;5.90;2.33;;;;;;;;;;2130991;27;20041;-46
2021/08/06 02:45:18;;;;;;;5.10;2.47;;;;;;;;;;2132090;27;20062;-45
2021/08/06 02:46:19;;;;;;;6.55;2.72;;;;;;;;;;2130269;27;20145;-45
2021/08/06 02:47:20;;;;;;;4.82;2.72;;;;;;;;;;2131659;27;20039;-47
2021/08/06 02:48:21;;;;;;;3.53;2.50;;;;;;;;;;2132281;27;20171;-46
2021/08/06 02:49:22;;;;;;;3.93;2.57;;;;;;;;;;2130287;27;20039;-46
2021/08/06 02:50:23;;;;;;;6.07;3.03;;;;;;;;;;2130883;27;20129;-46
2021/08/06 02:51:24;;;;;;;4.57;2.37;;;;;;;;;;2132202;27;20129;-47
2021/08/06 02:52:25;;;;;;;4.15;2.88;;;;;;;;;;2128630;27;20053;-46
2021/08/06 02:53:26;;;;;;;4.50;2.60;;;;;;;;;;2131852;27;20038;-47
2021/08/06 02:54:27;;;;;;;5.20;2.65;;;;;;;;;;2132108;27;20524;-46
2021/08/06 02:55:28;;;;;;;3.83;2.47;;;;;;;;;;2129904;27;20043;-46
2021/08/06 02:56:29;;;;;;;5.43;3.00;;;;;;;;;;2131806;27;20620;-48
2021/08/06 02:57:30;;;;;;;4.10;2.50;;;;;;;;;;2132112;27;20071;-47
2021/08/06 02:58:31;;;;;;;4.75;2.90;;;;;;;;;;2129896;27;20278;-45
2021/08/06 02:59:32;;;;;;;7.20;2.70;;;;;;;;;;2132121;27;20369;-47
2021/08/06 03:00:34;;;;;;;5.68;2.60;;;;;;;;;;2132160;27;20161;-46
2021/08/06 03:01:35;;;;;;;4.15;2.50;;;;;;;;;;2129717;27;20445;-47
2021/08/06 03:02:36;;;;;;;4.45;2.80;;;;;;;;;;2131878;27;20605;-46
2021/08/06 03:03:37;;;;;;;7.32;2.92;;;;;;;;;;2131998;27;20058;-46
2021/08/06 03:04:38;;;;;;;5.27;2.20;;;;;;;;;;2129365;27;20054;-49
2021/08/06 03:05:39;;;;;;;7.05;2.55;;;;;;;;;;2132122;27;20126;-46
2021/08/06 03:06:40;;;;;;;5.07;2.87;;;;;;;;;;2132184;27;20050;-49
2021/08/06 03:07:46;;;;;;;3.30;2.47;;;;;;;;;;2129580;27;20651;-47
2021/08/06 03:08:48;;;;;;;3.65;2.40;;;;;;;;;;2132089;27;20080;-47
2021/08/06 03:09:49;;;;;;;3.78;2.75;;;;;;;;;;2131420;27;20118;-45
2021/08/06 03:10:50;;;;;;;5.53;3.30;;;;;;;;;;2130127;27;20161;-48
2021/08/06 03:11:51;;;;;;;4.00;2.50;;;;;;;;;;2132070;27;20125;-47
2021/08/06 03:12:52;;;;;;;5.33;2.47;;;;;;;;;;2131176;27;20474;-45
2021/08/06 03:13:53;;;;;;;4.07;3.08;;;;;;;;;;2130615;27;20377;-47
2021/08/06 03:14:54;;;;;;;5.65;3.00;;;;;;;;;;2131546;27;20061;-46
2021/08/06 03:15:56;;;;;;;4.55;2.97;;;;;;;;;;2129867;27;20047;-46
2021/08/06 03:16:57;;;;;;;6.30;2.65;;;;;;;;;;2130020;27;20130;-46
2021/08/06 03:17:58;;;;;;;5.18;3.03;;;;;;;;;;2131232;27;20045;-46
2021/08/06 03:18:59;;;;;;;6.57;2.90;;;;;;;;;;2129046;27;20047;-47
2021/08/06 03:20:00;;;;;;;4.28;2.90;;;;;;;;;;2131092;27;20423;-46
2021/08/06 03:21:01;;;;;;;5.03;2.50;;;;;;;;;;2131636;27;20045;-49
2021/08/06 03:22:02;;;;;;;4.35;2.45;;;;;;;;;;2128727;27;20051;-46
2021/08/06 03:23:03;;;;;;;4.32;2.67;;;;;;;;;;2131552;27;20606;-47
2021/08/06 03:24:05;;;;;;;5.00;2.67;;;;;;;;;;2131940;27;20047;-46
2021/08/06 03:25:07;;;;;;;3.92;2.60;;;;;;;;;;2129528;27;20129;-46
2021/08/06 03:26:08;;;;;;;3.70;2.50;;;;;;;;;;2132006;27;20134;-47
2021/08/06 03:27:09;;;;;;;2.85;2.50;;;;;;;;;;2131924;27;20114;-45
2021/08/06 03:28:10;;;;;;;4.17;2.60;;;;;;;;;;2129469;27;20152;-45
2021/08/06 03:29:11;;;;;;;4.45;2.60;;;;;;;;;;2131992;27;20164;-47
2021/08/06 03:30:13;;;;;;;4.40;2.55;;;;;;;;;;2131173;27;20078;-47
2021/08/06 03:31:14;;;;;;;;;;;;;;;;;;2130299;27;20184;-46
2021/08/06 03:32:15;;;;;;;5.00;2.45;;;;;;;;;;2131778;27;19968;-47
2021/08/06 03:33:16;;;;;;;5.57;2.95;;;;;;;;;;2131380;27;20398;-45
2021/08/06 03:34:17;;;;;;;6.82;2.88;;;;;;;;;;2129779;27;20125;-45
2021/08/06 03:35:18;;;;;;;8.70;2.70;;;;;;;;;;2131988;27;20043;-46
2021/08/06 03:36:19;;;;;;;4.28;3.08;;;;;;;;;;2131178;27;20573;-46
2021/08/06 03:37:20;;;;;;;4.85;2.83;;;;;;;;;;2130215;27;20049;-45
2021/08/06 03:38:22;;;;;;;4.40;2.93;;;;;;;;;;2131780;27;20053;-46
2021/08/06 03:39:23;;;;;;;3.92;2.53;;;;;;;;;;2130338;27;20126;-46
2021/08/06 03:40:24;;;;;;;4.85;2.47;;;;;;;;;;2131144;27;20133;-48
2021/08/06 03:41:25;;;;;;;6.37;3.07;;;;;;;;;;2131864;27;20134;-46
2021/08/06 03:42:26;;;;;;;4.88;3.03;;;;;;;;;;2129880;27;20057;-45
2021/08/06 03:43:27;;;;;;;4.97;3.13;;;;;;;;;;2131389;27;20125;-47
2021/08/06 03:44:28;;;;;;;4.15;2.58;;;;;;;;;;2131985;27;20050;-46
2021/08/06 03:45:29;;;;;;;6.97;2.60;;;;;;;;;;2129666;27;20475;-47
2021/08/06 03:46:30;;;;;;;6.55;3.10;;;;;;;;;;2131429;27;20043;-45
2021/08/06 03:47:33;;;;;;;4.53;2.70;;;;;;;;;;2131760;27;20059;-46
2021/08/06 03:48:34;;;;;;;3.60;2.72;;;;;;;;;;2128216;27;20275;-46
2021/08/06 03:49:35;;;;;;;5.53;2.75;;;;;;;;;;2130406;27;20517;-47
2021/08/06 03:50:37;;;;;;;7.15;2.80;;;;;;;;;;2131854;27;20092;-46
2021/08/06 03:51:37;;;;;;;4.68;2.80;;;;;;;;;;2129652;27;20061;-47
2021/08/06 03:52:39;;;;;;;4.67;2.60;;;;;;;;;;2125240;27;20050;-48
2021/08/06 03:53:40;;;;;;;6.45;2.75;;;;;;;;;;2123334;27;20279;-48
2021/08/06 03:54:41;;;;;;;7.37;2.70;;;;;;;;;;2127128;27;20045;-49
2021/08/06 03:55:43;;;;;;;5.18;2.67;;;;;;;;;;2131670;27;20282;-49
2021/08/06 03:56:45;;;;;;;4.95;2.60;;;;;;;;;;2131618;27;20565;-46
2021/08/06 03:57:49;;;;;;;5.00;2.70;;;;;;;;;;2129245;27;20050;-45
2021/08/06 03:58:51;;;;;;;5.85;2.90;;;;;;;;;;2131689;27;20045;-46
2021/08/06 03:59:51;;;;;;;11.82;3.65;;;;;;;;;;2131852;27;20162;-46
2021/08/06 04:00:53;;;;;;;6.73;3.57;;;;;;;;;;2129306;27;20510;-47
2021/08/06 04:01:54;;;;;;;7.07;3.80;;;;;;;;;;2131661;27;20046;-46
2021/08/06 04:02:55;;;;;;;6.55;3.60;;;;;;;;;;2131108;27;20614;-47
2021/08/06 04:03:56;;;;;;;;;;;;;;;;;;2129449;27;20043;-48
2021/08/06 04:04:57;;;;;;;7.53;4.20;;;;;;;;;;2131636;27;20345;-47
2021/08/06 04:05:58;;;;;;;8.45;4.18;;;;;;;;;;2131300;27;20043;-47
2021/08/06 04:06:59;;;;;;;4.80;3.13;;;;;;;;;;2129978;27;20058;-46
2021/08/06 04:08:04;;;;;;;4.10;3.22;;;;;;;;;;2131578;27;20122;-45
2021/08/06 04:09:05;;;;;;;4.43;3.40;;;;;;;;;;2129785;27;20055;-47
2021/08/06 04:10:06;;;;;;;4.70;2.88;;;;;;;;;;2130065;27;20050;-46
2021/08/06 04:11:07;;;;;;;7.05;3.05;;;;;;;;;;2128879;27;20534;-47
2021/08/06 04:12:08;;;;;;;6.80;3.65;;;;;;;;;;2128947;27;20053;-46
2021/08/06 04:13:09;;;;;;;4.37;3.10;;;;;;;;;;2130251;27;20046;-47
2021/08/06 04:14:10;;;;;;;4.68;2.58;;;;;;;;;;2131030;27;20129;-46
2021/08/06 04:15:12;;;;;;;5.53;3.03;;;;;;;;;;2128736;27;20099;-46
2021/08/06 04:16:12;;;;;;;5.35;3.00;;;;;;;;;;2130520;27;20067;-47
2021/08/06 04:17:13;;;;;;;6.37;3.07;;;;;;;;;;2130786;27;20151;-47
2021/08/06 04:18:15;;;;;;;5.60;2.95;;;;;;;;;;2128432;27;20121;-47
2021/08/06 04:19:16;;;;;;;5.07;2.75;;;;;;;;;;2130634;27;20129;-47
2021/08/06 04:20:17;;;;;;;3.05;2.25;;;;;;;;;;2130878;27;20369;-47
2021/08/06 04:21:18;;;;;;;3.70;2.85;;;;;;;;;;2128527;27;20070;-49
2021/08/06 04:22:19;;;;;;;6.43;3.15;;;;;;;;;;2130470;27;20094;-47
2021/08/06 04:23:20;;;;;;;4.50;2.73;;;;;;;;;;2130944;27;20051;-46
2021/08/06 04:24:21;;;;;;;4.68;2.92;;;;;;;;;;2128940;27;20395;-47
2021/08/06 04:25:22;;;;;;;5.50;2.97;;;;;;;;;;2131028;27;20042;-46
2021/08/06 04:26:23;;;;;;;5.13;2.90;;;;;;;;;;2131135;27;20171;-46
2021/08/06 04:27:24;;;;;;;3.50;2.47;;;;;;;;;;2129028;27;20129;-47
2021/08/06 04:28:25;;;;;;;4.20;2.65;;;;;;;;;;2131435;27;20074;-46
2021/08/06 04:29:26;;;;;;;3.33;2.40;;;;;;;;;;2131811;27;20130;-46
2021/08/06 04:30:27;;;;;;;3.57;2.70;;;;;;;;;;2129017;27;20072;-47
2021/08/06 04:31:28;;;;;;;3.45;2.33;;;;;;;;;;2131506;27;20050;-51
2021/08/06 04:32:29;;;;;;;5.17;2.53;;;;;;;;;;2131341;27;20046;-47
2021/08/06 04:33:31;;;;;;;8.80;2.90;;;;;;;;;;2128152;27;20289;-47
2021/08/06 04:34:32;;;;;;;4.82;2.35;;;;;;;;;;2131608;27;20114;-50
2021/08/06 04:35:34;;;;;;;3.25;2.47;;;;;;;;;;2130966;27;20050;-48
2021/08/06 04:36:34;;;;;;;7.05;2.70;;;;;;;;;;2129565;27;20128;-46
2021/08/06 04:37:44;;;;;;;4.87;2.93;;;;;;;;;;2131332;27;20159;-47
2021/08/06 04:38:46;;;;;;;3.13;2.42;;;;;;;;;;2129655;27;20046;-48
2021/08/06 04:39:48;;;;;;;4.63;2.83;;;;;;;;;;2131075;27;20119;-47
2021/08/06 04:40:49;;;;;;;3.70;2.70;;;;;;;;;;2131564;27;20078;-46
2021/08/06 04:41:50;;;;;;;6.25;2.60;;;;;;;;;;2128259;27;20122;-51
2021/08/06 04:42:52;;;;;;;5.15;2.60;;;;;;;;;;2129979;27;20052;-46
2021/08/06 04:43:53;;;;;;;4.10;2.47;;;;;;;;;;2131471;27;20167;-46
2021/08/06 04:44:54;;;;;;;5.22;2.63;;;;;;;;;;2129291;27;20107;-47
2021/08/06 04:45:55;;;;;;;7.67;2.90;;;;;;;;;;2131053;27;20555;-47
2021/08/06 04:46:55;;;;;;;3.38;2.65;;;;;;;;;;2131480;27;20125;-47
2021/08/06 04:48:00;;;;;;;4.70;2.70;;;;;;;;;;2127722;27;20510;-51
2021/08/06 04:49:02;;;;;;;3.33;2.50;;;;;;;;;;2131033;27;20402;-49
2021/08/06 04:50:03;;;;;;;;;;;;;;;;;;2131911;27;20055;-46
2021/08/06 04:51:04;;;;;;;7.60;3.25;;;;;;;;;;2127553;27;20021;-46
2021/08/06 04:52:05;;;;;;;5.90;2.55;;;;;;;;;;2131337;27;20133;-52
2021/08/06 04:53:06;;;;;;;4.32;2.92;;;;;;;;;;2129820;27;20054;-50
2021/08/06 04:54:07;;;;;;;4.45;2.88;;;;;;;;;;2128760;27;20380;-50
2021/08/06 04:55:08;;;;;;;5.07;2.70;;;;;;;;;;2131336;27;20071;-49
2021/08/06 04:56:09;;;;;;;8.45;3.00;;;;;;;;;;2131384;27;20082;-49
2021/08/06 04:57:10;;;;;;;5.57;2.70;;;;;;;;;;2128756;27;20049;-51
2021/08/06 04:58:11;;;;;;;5.93;2.90;;;;;;;;;;2131524;27;20045;-46
2021/08/06 04:59:12;;;;;;;3.47;2.60;;;;;;;;;;2131403;27;20046;-49
2021/08/06 05:00:14;;;;;;;3.33;2.30;;;;;;;;;;2127860;27;20133;-50
2021/08/06 05:01:15;;;;;;;4.30;2.28;;;;;;;;;;2131432;27;20314;-46
2021/08/06 05:02:16;;;;;;;5.53;2.50;;;;;;;;;;2130888;27;20047;-46
2021/08/06 05:03:17;;;;;;;5.45;2.38;;;;;;;;;;2129224;27;20049;-49
2021/08/06 05:04:19;;;;;;;3.60;2.58;;;;;;;;;;2131203;27;20046;-46
2021/08/06 05:05:20;;;;;;;;;;;;;;;;;;2131059;27;20125;-49
2021/08/06 05:06:21;;;;;;;5.75;2.80;;;;;;;;;;2129599;27;20316;-48
2021/08/06 05:07:22;;;;;;;5.10;2.60;;;;;;;;;;2131175;27;20047;-46
2021/08/06 05:08:23;;;;;;;3.90;2.60;;;;;;;;;;2129785;27;20114;-52
2021/08/06 05:09:24;;;;;;;4.65;2.67;;;;;;;;;;2130258;27;20550;-47
2021/08/06 05:10:25;;;;;;;4.37;2.80;;;;;;;;;;2131229;27;20049;-48
2021/08/06 05:11:26;;;;;;;5.38;2.55;;;;;;;;;;2129119;27;20049;-48
2021/08/06 05:12:27;;;;;;;4.68;2.42;;;;;;;;;;2128871;27;20075;-48
2021/08/06 05:13:28;;;;;;;7.60;3.10;;;;;;;;;;2125729;27;20568;-47
2021/08/06 05:14:29;;;;;;;4.28;2.50;;;;;;;;;;2122566;27;20122;-47
2021/08/06 05:15:30;;;;;;;5.25;2.85;;;;;;;;;;2130852;27;20083;-47
2021/08/06 05:16:33;;;;;;;3.25;2.38;;;;;;;;;;2124531;27;20082;-48
2021/08/06 05:17:34;;;;;;;4.70;2.65;;;;;;;;;;2125202;27;20044;-49
2021/08/06 05:18:35;;;;;;;6.85;3.13;;;;;;;;;;2130063;27;20091;-48
2021/08/06 05:19:37;;;;;;;6.10;2.92;;;;;;;;;;2122735;28;20129;-47
2021/08/06 05:20:38;;;;;;;6.97;2.65;;;;;;;;;;2125827;27;20585;-50
2021/08/06 05:21:39;;;;;;;9.52;3.20;;;;;;;;;;2130923;27;20467;-48
2021/08/06 05:22:40;;;;;;;5.80;3.27;;;;;;;;;;2131129;27;20047;-47
2021/08/06 05:23:41;;;;;;;6.78;2.65;;;;;;;;;;2128744;27;20641;-48
2021/08/06 05:24:42;;;;;;;9.15;3.20;;;;;;;;;;2130790;27;20297;-48
2021/08/06 05:25:43;;;;;;;3.97;2.70;;;;;;;;;;2131227;27;20129;-50
2021/08/06 05:26:44;;;;;;;4.35;2.97;;;;;;;;;;2128671;27;20482;-48
2021/08/06 05:27:45;;;;;;;4.30;2.80;;;;;;;;;;2122437;27;20047;-49
2021/08/06 05:28:47;;;;;;;7.40;3.00;;;;;;;;;;2122469;28;20498;-48
2021/08/06 05:29:48;;;;;;;6.43;3.03;;;;;;;;;;2127894;27;20050;-48
2021/08/06 05:30:49;;;;;;;6.65;2.83;;;;;;;;;;2131012;27;20122;-49
2021/08/06 05:31:50;;;;;;;4.00;2.77;;;;;;;;;;2131130;27;20171;-48
2021/08/06 05:32:51;;;;;;;5.03;2.63;;;;;;;;;;2128716;27;20282;-48
2021/08/06 05:33:52;;;;;;;3.40;2.55;;;;;;;;;;2131093;27;20043;-47
2021/08/06 05:34:53;;;;;;;4.63;2.50;;;;;;;;;;2130097;27;20203;-49
2021/08/06 05:35:55;;;;;;;7.88;2.80;;;;;;;;;;2128435;27;20604;-49
2021/08/06 05:36:55;;;;;;;4.93;2.67;;;;;;;;;;2131000;27;20409;-48
2021/08/06 05:37:57;;;;;;;7.23;2.50;;;;;;;;;;2130575;27;20054;-48
2021/08/06 05:38:57;;;;;;;3.50;2.72;;;;;;;;;;2129373;27;20373;-48
2021/08/06 05:39:59;;;;;;;4.17;2.80;;;;;;;;;;2131130;27;20089;-51
2021/08/06 05:41:01;;;;;;;7.57;2.83;;;;;;;;;;2129774;27;20553;-49
2021/08/06 05:42:03;;;;;;;4.88;2.90;;;;;;;;;;2130199;27;20410;-48
2021/08/06 05:43:03;;;;;;;4.03;2.55;;;;;;;;;;2130903;27;20042;-48
2021/08/06 05:44:05;;;;;;;12.23;3.60;;;;;;;;;;2128851;27;20051;-51
2021/08/06 05:45:06;;;;;;;4.75;3.03;;;;;;;;;;2130514;27;20539;-49
2021/08/06 05:46:07;;;;;;;7.78;2.97;;;;;;;;;;2131099;27;20151;-49
2021/08/06 05:47:08;;;;;;;5.97;2.42;;;;;;;;;;2128725;27;20130;-48
2021/08/06 05:48:12;;;;;;;6.97;2.47;;;;;;;;;;2130774;27;20410;-48
2021/08/06 05:49:13;;;;;;;3.50;2.65;;;;;;;;;;2130887;27;20145;-48
2021/08/06 05:50:15;;;;;;;7.23;2.53;;;;;;;;;;2127411;27;20047;-48
2021/08/06 05:51:16;;;;;;;3.58;2.53;;;;;;;;;;2130336;27;20738;-49
2021/08/06 05:52:18;;;;;;;4.47;2.40;;;;;;;;;;2129317;27;20141;-49
2021/08/06 05:53:18;;;;;;;7.05;3.10;;;;;;;;;;2128729;27;20130;-48
2021/08/06 05:54:20;;;;;;;4.43;2.28;;;;;;;;;;2129533;27;20038;-50
2021/08/06 05:55:21;;;;;;;4.70;2.60;;;;;;;;;;2130726;27;20514;-50
2021/08/06 05:56:22;;;;;;;4.85;2.40;;;;;;;;;;2128508;27;20399;-48
2021/08/06 05:57:23;;;;;;;4.88;2.47;;;;;;;;;;2130557;27;20133;-50
2021/08/06 05:58:24;;;;;;;5.77;2.53;;;;;;;;;;2130727;27;20074;-50
2021/08/06 05:59:25;;;;;;;5.97;2.78;;;;;;;;;;2128652;27;20047;-48
2021/08/06 06:00:26;;;;;;;5.10;2.50;;;;;;;;;;2130789;27;20046;-48
2021/08/06 06:01:27;;;;;;;4.55;2.78;;;;;;;;;;2130034;27;20070;-49
2021/08/06 06:02:28;;;;;;;4.45;2.80;;;;;;;;;;2129385;27;20047;-49
2021/08/06 06:03:29;;;;;;;7.25;2.72;;;;;;;;;;2130898;27;20035;-50
2021/08/06 06:04:30;;;;;;;5.38;2.38;;;;;;;;;;2129261;27;20077;-47
2021/08/06 06:05:32;;;;;;;5.40;2.70;;;;;;;;;;2130096;27;20066;-47
2021/08/06 06:06:33;;;;;;;4.82;2.63;;;;;;;;;;2128011;27;20050;-50
2021/08/06 06:07:41;;;;;;;5.88;2.60;;;;;;;;;;2128677;27;20118;-49
2021/08/06 06:08:42;;;;;;;3.55;2.40;;;;;;;;;;2130105;27;20070;-50
2021/08/06 06:09:43;;;;;;;5.13;2.97;;;;;;;;;;2130656;27;20075;-51
2021/08/06 06:10:44;;;;;;;5.05;2.80;;;;;;;;;;2127839;27;20142;-48